Portada
METAR-TAF:

METAR-TAF

Aeroports :

Imphal, Índia

latitud: 24-45-36N, longitud: 93-53-48E, altitud: 774 m

Observació

L'informe es va fer fa 7 hores i 32 minuts, a les 12:00 UTC
Vent 6 kt del Oest/Sud-Oest
Temperatura 23°C
Humitat 69%
Pressió 1013 hPa
Visibilitat: 4000 m
Núvols disperses a una alçada de 1800 ft
Cel ennuvolat a una alçada de 10000 ft
calitja

METAR: VEIM 181200Z 25006KT 4000 HZ SCT018 BKN100 23/17 Q1013 NOSIG

Hora: 01:02 (19:32 UTC)

Pronòstic

L'informe es va fer fa 2 hores i 32 minuts, a les 17:00 UTC
Pronòstic vàlid del 18 a les 18 UTC al 19 a les 03 UTC
Vent 5 kt del Sud
Visibilitat: 2500 m
Escasses núvols a una alçada de 1000 ft
Núvols disperses a una alçada de 1800 ft
Cel ennuvolat a una alçada de 10000 ft
boirina, pluja
Evolucionant progressivament
l' 19 a les 00 UTC al 19 a les 02 UTC
Visibilitat: 1500 m
boirina

TAF: VEIM 181700Z 1818/1903 18005KT 2500 BR -RA FEW010 SCT018 BKN100 BECMG 1900/1902 1500 BR

Observacions i pronòstics meteorològics de més de 4000 aeroports (METAR i TAF).

Les estacions disponibles són els punts grocs i vermells al mapa.

Posi el ratolí al punt desitjat per veure el nom de l'estació.

Feu clic per veure les observacions i els pronòstics meteorològics.

Per canviar el mapa: feu clic els botons verds amb una creu de color negre per apropar; al botó verd amb un guió per allunyar la imatge; o en les fletxes verdes per a mapes adjacents.


METAR-TAF: